createdAt,value
2017-09-15T00:01:16.732Z,0.90
2017-09-15T00:03:49.590Z,0.90
2017-09-15T00:06:26.321Z,0.80
2017-09-15T00:09:00.109Z,1.23
2017-09-15T00:11:31.545Z,1.10
2017-09-15T00:14:05.804Z,1.33
2017-09-15T00:16:39.566Z,1.07
2017-09-15T00:19:17.560Z,1.00
2017-09-15T00:21:50.956Z,1.30
2017-09-15T00:24:25.556Z,0.90
2017-09-15T00:26:57.193Z,1.13
2017-09-15T00:29:31.508Z,1.17
2017-09-15T00:32:09.765Z,1.43
2017-09-15T00:34:43.351Z,1.23
2017-09-15T00:37:16.385Z,1.63
2017-09-15T00:39:51.761Z,1.20
2017-09-15T00:42:25.483Z,1.17
2017-09-15T00:45:00.131Z,1.30
2017-09-15T00:47:34.345Z,1.43
2017-09-15T00:50:07.132Z,1.30
2017-09-15T00:52:40.966Z,1.00
2017-09-15T00:55:15.679Z,1.50
2017-09-15T00:57:47.025Z,1.37
2017-09-15T01:00:23.721Z,1.60
2017-09-15T01:02:54.986Z,1.00
2017-09-15T01:05:26.744Z,1.37
2017-09-15T01:07:58.028Z,1.20
2017-09-15T01:10:29.367Z,1.30
2017-09-15T01:13:01.431Z,1.80
2017-09-15T01:15:32.709Z,1.67
2017-09-15T01:18:04.973Z,1.33
2017-09-15T01:20:36.404Z,0.80
2017-09-15T01:23:11.007Z,1.13
2017-09-15T01:25:42.414Z,1.00
2017-09-15T01:28:18.398Z,4.33
2017-09-15T01:30:51.498Z,1.50
2017-09-15T01:33:23.627Z,1.10
2017-09-15T01:35:54.849Z,1.30
2017-09-15T01:38:27.247Z,2.30
2017-09-15T01:40:58.773Z,1.37
2017-09-15T01:43:30.533Z,1.67
2017-09-15T01:46:04.067Z,1.50
2017-09-15T01:48:35.630Z,1.90
2017-09-15T01:51:06.710Z,1.90
2017-09-15T01:53:37.899Z,1.80
2017-09-15T01:56:09.317Z,1.20
2017-09-15T01:58:41.352Z,1.30
2017-09-15T02:01:15.274Z,1.67
2017-09-15T02:03:46.673Z,1.20
2017-09-15T02:06:18.130Z,1.30
2017-09-15T02:08:49.540Z,1.70
2017-09-15T02:11:21.967Z,1.57
2017-09-15T02:13:53.443Z,1.77
2017-09-15T02:16:26.342Z,1.30
2017-09-15T02:18:57.721Z,1.60
2017-09-15T02:21:28.778Z,1.47
2017-09-15T02:23:59.839Z,1.10
2017-09-15T02:26:31.323Z,1.13
2017-09-15T02:29:03.979Z,1.40
2017-09-15T02:31:35.199Z,1.17
2017-09-15T02:34:10.038Z,1.50
2017-09-15T02:36:41.595Z,1.00
2017-09-15T02:39:14.244Z,0.90
2017-09-15T02:41:46.309Z,2.23
2017-09-15T02:44:20.360Z,1.40
2017-09-15T02:46:51.936Z,1.17
2017-09-15T02:49:24.565Z,1.53
2017-09-15T02:51:56.045Z,0.83
2017-09-15T02:54:27.922Z,1.50
2017-09-15T02:57:15.835Z,1.07
2017-09-15T02:59:49.780Z,1.13
2017-09-15T03:02:21.270Z,1.23
2017-09-15T03:04:52.886Z,1.40
2017-09-15T03:07:24.871Z,1.60
2017-09-15T03:09:56.333Z,1.77
2017-09-15T03:12:27.636Z,1.73
2017-09-15T03:14:59.030Z,1.43
2017-09-15T03:17:30.810Z,1.23
2017-09-15T03:20:03.922Z,1.10
2017-09-15T03:22:35.443Z,1.43
2017-09-15T03:25:06.617Z,1.63
2017-09-15T03:27:37.671Z,1.30
2017-09-15T03:30:11.418Z,1.37
2017-09-15T03:32:42.953Z,1.63
2017-09-15T03:35:16.669Z,1.40
2017-09-15T03:37:48.946Z,1.30
2017-09-15T03:40:22.580Z,1.37
2017-09-15T03:42:53.769Z,0.93
2017-09-15T03:45:27.986Z,1.30
2017-09-15T03:47:59.532Z,1.60
2017-09-15T03:50:31.967Z,1.40
2017-09-15T03:53:04.710Z,1.30
2017-09-15T03:55:36.146Z,1.10
2017-09-15T03:58:07.971Z,1.40
2017-09-15T04:00:39.110Z,1.20
2017-09-15T04:03:10.943Z,1.30
2017-09-15T04:05:42.122Z,1.20
2017-09-15T04:08:16.369Z,1.23
2017-09-15T04:13:54.215Z,1.30
2017-09-15T04:16:27.199Z,1.37
2017-09-15T04:18:58.841Z,1.60
2017-09-15T04:21:31.269Z,1.30
2017-09-15T04:24:06.259Z,1.43
2017-09-15T04:26:38.748Z,1.50
2017-09-15T04:29:12.216Z,0.90
2017-09-15T04:31:46.792Z,1.37
2017-09-15T04:34:20.285Z,1.20
2017-09-15T04:36:51.711Z,1.13
2017-09-15T04:39:24.022Z,1.33
2017-09-15T04:41:55.175Z,1.00
2017-09-15T05:02:45.062Z,1.50
2017-09-15T05:05:18.349Z,2.30
2017-09-15T05:07:52.029Z,1.73
2017-09-15T05:10:24.346Z,1.00
2017-09-15T05:12:55.630Z,1.37
2017-09-15T05:15:28.880Z,1.30
2017-09-15T05:18:00.158Z,2.00
2017-09-15T05:20:31.286Z,1.77
2017-09-15T05:23:02.592Z,2.33
2017-09-15T05:25:33.746Z,1.60
2017-09-15T05:28:05.792Z,1.97
2017-09-15T05:30:36.913Z,1.57
2017-09-15T05:33:08.130Z,1.97
2017-09-15T05:35:39.549Z,2.50
2017-09-15T05:38:10.633Z,2.23
2017-09-15T05:40:41.805Z,1.93
2017-09-15T05:43:17.761Z,2.17
2017-09-15T05:45:48.931Z,2.33
2017-09-15T05:48:20.266Z,2.43
2017-09-15T05:50:51.339Z,2.67
2017-09-15T05:53:23.182Z,2.83
2017-09-15T05:55:54.558Z,3.83
2017-09-15T05:58:26.559Z,3.80
2017-09-15T06:00:57.998Z,3.90
2017-09-15T06:03:30.240Z,3.63
2017-09-15T06:06:01.882Z,3.70
2017-09-15T06:08:33.317Z,3.87
2017-09-15T06:11:05.666Z,3.53
2017-09-15T06:13:37.095Z,3.27
2017-09-15T06:16:08.300Z,3.00
2017-09-15T06:18:39.386Z,2.93
2017-09-15T06:21:10.800Z,3.13
2017-09-15T06:23:41.893Z,3.27
2017-09-15T06:26:13.411Z,2.70
2017-09-15T06:28:44.830Z,2.73
2017-09-15T06:31:15.929Z,1.70
2017-09-15T06:33:47.131Z,1.90
2017-09-15T06:36:18.324Z,1.97
2017-09-15T06:38:50.763Z,2.30
2017-09-15T06:41:22.680Z,1.70
2017-09-15T06:43:53.941Z,1.90
2017-09-15T06:46:27.710Z,3.13
2017-09-15T06:49:00.690Z,1.70
2017-09-15T06:51:31.888Z,1.90
2017-09-15T06:54:05.011Z,1.63
2017-09-15T06:56:36.835Z,1.67
2017-09-15T06:59:08.236Z,1.60
2017-09-15T07:01:39.417Z,2.63
2017-09-15T07:04:10.646Z,1.90
2017-09-15T07:06:42.290Z,1.60
2017-09-15T07:09:13.786Z,1.40
2017-09-15T07:11:44.892Z,1.67
2017-09-15T07:14:16.568Z,1.60
2017-09-15T07:16:48.055Z,2.07
2017-09-15T07:19:19.218Z,2.67
2017-09-15T07:21:50.338Z,2.60
2017-09-15T07:24:21.542Z,2.20
2017-09-15T07:26:53.157Z,1.90
2017-09-15T07:29:24.797Z,2.10
2017-09-15T07:31:56.149Z,1.97
2017-09-15T07:34:30.027Z,1.57
2017-09-15T07:37:13.409Z,1.40
2017-09-15T07:39:44.909Z,1.40
2017-09-15T07:42:16.061Z,1.03
2017-09-15T07:44:50.074Z,1.30
2017-09-15T07:47:21.545Z,1.00
2017-09-15T07:49:54.070Z,1.03
2017-09-15T07:52:28.121Z,1.43
2017-09-15T07:54:59.277Z,1.33
2017-09-15T07:57:30.998Z,1.27
2017-09-15T08:00:03.644Z,1.27
2017-09-15T08:02:34.738Z,0.90
2017-09-15T08:05:06.111Z,0.87
2017-09-15T08:07:37.403Z,1.40
2017-09-15T08:10:08.703Z,1.23
2017-09-15T08:12:41.749Z,1.00
2017-09-15T08:15:12.948Z,1.30
2017-09-15T08:17:44.247Z,1.47
2017-09-15T08:20:15.726Z,1.37
2017-09-15T08:22:46.854Z,2.27
2017-09-15T08:25:18.426Z,1.07
2017-09-15T08:30:55.177Z,1.30
2017-09-15T08:33:26.473Z,2.07
2017-09-15T08:35:59.342Z,1.60
2017-09-15T08:38:30.495Z,1.37
2017-09-15T08:41:03.902Z,1.43
2017-09-15T08:43:45.417Z,1.13
2017-09-15T08:46:18.684Z,1.70
2017-09-15T08:48:50.167Z,1.43
2017-09-15T08:51:23.158Z,1.87
2017-09-15T08:53:54.487Z,1.20
2017-09-15T08:59:31.380Z,1.30
2017-09-15T09:04:58.369Z,1.43
2017-09-15T09:10:35.528Z,1.40
2017-09-15T09:16:07.341Z,1.23
2017-09-15T09:29:20.640Z,1.40
2017-09-15T12:35:49.378Z,1.00
2017-09-15T15:46:53.603Z,0.80
2017-09-15T15:49:28.644Z,0.60
2017-09-15T15:55:31.062Z,0.60
2017-09-15T15:58:13.651Z,0.80
2017-09-15T16:01:12.739Z,0.97
2017-09-15T16:05:30.770Z,0.60
2017-09-15T16:14:35.934Z,0.83
2017-09-15T16:17:18.167Z,1.33
2017-09-15T16:19:58.892Z,1.13
2017-09-15T16:22:32.766Z,0.90
2017-09-15T16:25:17.580Z,1.07
2017-09-15T16:27:57.758Z,0.70
2017-09-15T16:30:38.788Z,0.80
2017-09-15T16:33:18.319Z,0.70
2017-09-15T18:27:08.728Z,2.20
2017-09-15T18:32:40.896Z,2.00
2017-09-15T18:38:29.008Z,2.10
2017-09-15T18:47:14.994Z,2.23
2017-09-15T18:49:58.229Z,1.90
2017-09-15T18:52:38.707Z,1.40
2017-09-15T18:55:27.978Z,1.53
2017-09-15T19:04:21.519Z,1.50
2017-09-15T19:07:02.141Z,1.90
2017-09-15T19:09:47.677Z,1.50
2017-09-15T19:12:22.558Z,1.50
2017-09-15T19:14:59.961Z,1.33
2017-09-15T19:20:39.118Z,1.40
2017-09-15T19:23:37.086Z,2.03
2017-09-15T19:26:30.948Z,1.50
2017-09-15T19:29:07.698Z,1.93
2017-09-15T19:37:37.513Z,1.73
2017-09-15T19:40:15.065Z,1.53
2017-09-15T19:42:47.818Z,1.90
2017-09-15T19:45:22.473Z,1.80
2017-09-15T19:57:11.103Z,1.60
2017-09-15T19:59:49.552Z,2.13
2017-09-15T20:19:05.806Z,2.70
2017-09-15T20:25:34.630Z,2.57
2017-09-15T20:28:07.779Z,14.93
2017-09-15T20:37:04.470Z,7.60
2017-09-15T20:39:39.898Z,2.20
2017-09-15T20:42:14.980Z,2.37
2017-09-15T20:44:58.650Z,3.00
2017-09-15T20:47:30.484Z,3.43
2017-09-15T20:50:04.069Z,3.03
2017-09-15T20:52:35.923Z,2.70
2017-09-15T20:55:07.527Z,2.90
2017-09-15T20:57:45.092Z,2.63
2017-09-15T21:00:16.562Z,2.20
2017-09-15T21:02:53.491Z,2.10
2017-09-15T21:05:25.814Z,2.70
2017-09-15T21:08:00.233Z,1.80
2017-09-15T21:10:31.819Z,3.23
2017-09-15T21:13:05.703Z,2.10
2017-09-15T21:15:37.637Z,2.27
2017-09-15T21:18:11.369Z,3.67
2017-09-15T21:20:49.205Z,2.80
2017-09-15T21:23:22.773Z,3.07
2017-09-15T21:25:54.141Z,3.43
2017-09-15T21:31:28.361Z,3.90
2017-09-15T21:33:59.738Z,4.83
2017-09-15T21:36:32.295Z,3.80
2017-09-15T21:39:04.228Z,3.70
2017-09-15T21:41:35.693Z,2.83
2017-09-15T21:44:07.335Z,3.20
2017-09-15T21:46:55.272Z,3.03
2017-09-15T21:49:42.860Z,2.80
2017-09-15T21:52:15.331Z,2.70
2017-09-15T21:54:46.779Z,3.40
2017-09-15T22:00:17.196Z,2.60
2017-09-15T22:09:25.314Z,3.20
2017-09-15T22:11:56.665Z,2.83
2017-09-15T22:17:24.005Z,4.43
2017-09-15T22:19:55.366Z,3.00
2017-09-15T22:22:28.738Z,2.73
2017-09-15T22:25:00.762Z,2.87
2017-09-15T22:27:33.347Z,3.70
2017-09-15T22:30:06.608Z,3.27
2017-09-15T22:32:44.027Z,2.77
2017-09-15T22:38:34.211Z,3.00
2017-09-15T22:41:11.334Z,2.97
2017-09-15T22:46:43.778Z,3.07
2017-09-15T22:55:06.973Z,2.80
